Flugplatz Celle Airport

Bericht für ETHC

vom 19.11. um 09:20 UTC

Wind 10 kt aus 220°

Sichtweite 10 km oder mehr

aufgebrochene Bewölkung in 1000 ft

aufgebrochene Bewölkung in 2800 ft

Temperatur 6.0°C

Taupunkt 4.0°C

Luftfeuchtigkeit 87%

Luftdruck 1013 hPa

ETHC 190920Z 22010KT 9999 BKN010 BKN028 06/04 Q1013 GRN GRN TEMPO YLO

Prognose für ETHC

vom 19.11. um 00:00 UTC

Zwischen 00:00 UTC und 00:00 UTC

Wind 10 kt aus 230°

Sichtweite 10 km oder mehr

keine signifikanten Wettererscheinungen

aufgelockert bewölkt in 700 ft

aufgebrochene Bewölkung in 1000 ft


Zwischen 00:00 UTC und 00:00 UTC zeitweise

Wind 12 kt aus 230° in Böen 22 kt

Sichtweite 5000 m

schwacher Regen

schwacher Sprühregen

aufgebrochene Bewölkung in 600 ft

aufgebrochene Bewölkung in 1000 ft


Zwischen 00:00 und 00:00 UTC übergehend zu

Wind 8 kt aus 220°

Sichtweite 10 km oder mehr

keine signifikanten Wettererscheinungen

aufgelockert bewölkt in 1000 ft

aufgebrochene Bewölkung in 1500 ft


Zwischen 00:00 UTC und 00:00 UTC zeitweise

Wind 10 kt aus 210°

Sichtweite 6000 m

schwacher Regenschauer

aufgelockert bewölkt in 700 ft

aufgebrochene Bewölkung in 1200 ft

TAF ETHC 190815Z 1909/1918 23010KT 9999 NSW SCT007 BKN010 TEMPO 1909/1912 23012G22KT 5000 -RADZ BKN006 BKN010 BECMG 1912/1914 22008KT 9999 NSW SCT010 BKN015 TEMPO 1914/1918 21010KT 6000 -SHRA SCT007 BKN012
Impressum